createdAt,value
2023-01-08T00:01:06.577Z,37.58
2023-01-08T00:03:34.963Z,37.15
2023-01-08T00:06:04.118Z,37.55
2023-01-08T00:08:34.273Z,35.40
2023-01-08T00:11:02.395Z,37.35
2023-01-08T00:13:30.965Z,36.15
2023-01-08T00:16:03.555Z,37.17
2023-01-08T00:18:31.701Z,35.58
2023-01-08T00:21:00.124Z,36.33
2023-01-08T00:23:28.644Z,35.70
2023-01-08T00:25:58.226Z,35.53
2023-01-08T00:28:26.389Z,37.42
2023-01-08T00:30:54.653Z,36.72
2023-01-08T00:33:22.894Z,36.25
2023-01-08T00:35:51.078Z,36.03
2023-01-08T00:38:19.206Z,36.88
2023-01-08T00:40:49.407Z,36.50
2023-01-08T00:43:18.927Z,36.20
2023-01-08T00:45:47.084Z,32.58
2023-01-08T00:48:15.250Z,36.22
2023-01-08T00:50:43.360Z,34.95
2023-01-08T00:53:11.486Z,34.60
2023-01-08T00:55:39.636Z,35.45
2023-01-08T00:58:07.813Z,35.85
2023-01-08T01:00:37.345Z,36.03
2023-01-08T01:03:05.455Z,34.03
2023-01-08T01:05:33.650Z,34.42
2023-01-08T01:08:01.754Z,34.05
2023-01-08T01:10:29.861Z,34.40
2023-01-08T01:12:57.985Z,32.17
2023-01-08T01:15:26.077Z,33.70
2023-01-08T01:17:55.672Z,33.92
2023-01-08T01:20:24.186Z,32.97
2023-01-08T01:22:52.341Z,33.05
2023-01-08T01:25:20.659Z,32.97
2023-01-08T01:27:48.885Z,33.58
2023-01-08T01:30:17.168Z,31.65
2023-01-08T01:32:45.270Z,31.67
2023-01-08T01:35:14.856Z,34.05
2023-01-08T01:37:42.986Z,29.60
2023-01-08T01:40:13.384Z,33.03
2023-01-08T01:42:41.530Z,33.10
2023-01-08T01:45:19.313Z,32.17
2023-01-08T01:47:51.045Z,30.40
2023-01-08T01:50:24.374Z,33.30
2023-01-08T01:52:58.959Z,33.03
2023-01-08T01:55:28.814Z,33.33
2023-01-08T01:58:05.028Z,33.00
2023-01-08T02:00:35.249Z,32.33
2023-01-08T02:03:03.673Z,32.50
2023-01-08T02:05:39.840Z,33.13
2023-01-08T02:08:13.820Z,32.40
2023-01-08T02:10:49.648Z,32.88
2023-01-08T02:13:23.755Z,33.58
2023-01-08T02:15:59.390Z,33.28
2023-01-08T02:18:33.287Z,33.47
2023-01-08T02:21:06.616Z,32.17
2023-01-08T02:23:42.228Z,34.28
2023-01-08T02:26:19.101Z,29.15
2023-01-08T02:28:52.748Z,31.08
2023-01-08T02:31:23.726Z,31.92
2023-01-08T02:33:51.987Z,31.33
2023-01-08T02:36:39.214Z,31.75
2023-01-08T02:39:39.482Z,31.90
2023-01-08T02:42:15.790Z,30.30
2023-01-08T02:44:55.373Z,30.00
2023-01-08T02:47:29.013Z,31.52
2023-01-08T02:50:05.249Z,32.35
2023-01-08T02:52:38.243Z,29.98
2023-01-08T02:55:08.450Z,31.25
2023-01-08T02:57:38.257Z,31.30
2023-01-08T03:00:08.160Z,31.10
2023-01-08T03:02:38.969Z,32.60
2023-01-08T03:05:14.848Z,30.92
2023-01-08T03:07:43.186Z,31.83
2023-01-08T03:10:12.052Z,30.40
2023-01-08T03:12:54.229Z,29.92
2023-01-08T03:15:28.584Z,30.00
2023-01-08T03:18:01.902Z,28.45
2023-01-08T03:20:32.555Z,29.55
2023-01-08T03:23:03.867Z,30.33
2023-01-08T03:25:32.058Z,29.15
2023-01-08T03:28:05.323Z,31.45
2023-01-08T03:30:33.887Z,31.40
2023-01-08T03:33:03.914Z,30.08
2023-01-08T03:35:33.723Z,29.42
2023-01-08T03:38:06.251Z,30.63
2023-01-08T03:40:38.311Z,29.48
2023-01-08T03:43:07.981Z,30.33
2023-01-08T03:45:39.039Z,33.05
2023-01-08T03:48:08.862Z,32.15
2023-01-08T03:50:37.156Z,31.30
2023-01-08T03:53:05.398Z,30.27
2023-01-08T03:55:33.555Z,31.30
2023-01-08T03:58:01.697Z,32.10
2023-01-08T04:00:31.437Z,30.25
2023-01-08T04:02:59.644Z,31.58
2023-01-08T04:05:27.781Z,28.88
2023-01-08T04:07:56.899Z,30.95
2023-01-08T04:10:25.404Z,31.05
2023-01-08T04:12:54.004Z,30.20
2023-01-08T04:15:22.143Z,29.38
2023-01-08T04:17:51.681Z,31.77
2023-01-08T04:20:19.816Z,30.58
2023-01-08T04:22:47.944Z,32.03
2023-01-08T04:25:16.117Z,31.05
2023-01-08T04:27:44.253Z,33.03
2023-01-08T04:30:13.088Z,32.05
2023-01-08T04:32:41.178Z,33.03
2023-01-08T04:35:11.388Z,32.42
2023-01-08T04:37:39.487Z,32.70
2023-01-08T04:40:08.676Z,32.05
2023-01-08T04:42:36.772Z,34.67
2023-01-08T04:45:05.244Z,34.88
2023-01-08T04:47:33.356Z,33.83
2023-01-08T04:50:01.466Z,34.38
2023-01-08T04:52:31.007Z,31.98
2023-01-08T04:54:59.111Z,32.28
2023-01-08T04:57:27.260Z,30.95
2023-01-08T04:59:55.420Z,33.67
2023-01-08T05:02:23.683Z,30.40
2023-01-08T05:04:51.890Z,31.23
2023-01-08T05:07:20.027Z,33.55
2023-01-08T05:09:49.581Z,32.38
2023-01-08T05:12:17.698Z,33.47
2023-01-08T05:14:45.832Z,34.92
2023-01-08T05:17:13.953Z,34.55
2023-01-08T05:19:42.313Z,35.13
2023-01-08T05:22:10.405Z,33.95
2023-01-08T05:24:38.589Z,31.73
2023-01-08T05:27:08.126Z,33.50
2023-01-08T05:29:36.237Z,34.25
2023-01-08T05:32:04.373Z,32.17
2023-01-08T05:34:32.493Z,34.17
2023-01-08T05:37:00.579Z,34.10
2023-01-08T05:39:28.706Z,31.23
2023-01-08T05:41:56.818Z,33.60
2023-01-08T05:44:26.351Z,32.90
2023-01-08T05:46:54.568Z,32.08
2023-01-08T05:49:24.063Z,33.13
2023-01-08T05:51:52.402Z,32.45
2023-01-08T05:54:20.525Z,33.50
2023-01-08T05:56:48.648Z,32.58
2023-01-08T05:59:16.798Z,32.17
2023-01-08T06:01:46.415Z,32.80
2023-01-08T06:04:14.621Z,32.85
2023-01-08T06:06:42.824Z,30.23
2023-01-08T06:09:10.938Z,29.83
2023-01-08T06:11:39.070Z,31.25
2023-01-08T06:14:07.168Z,30.48
2023-01-08T06:16:35.315Z,30.10
2023-01-08T06:19:04.815Z,31.05
2023-01-08T06:21:32.932Z,31.73
2023-01-08T06:24:01.027Z,32.53
2023-01-08T06:26:29.142Z,31.40
2023-01-08T06:28:57.293Z,30.70
2023-01-08T06:31:25.470Z,30.80
2023-01-08T06:33:53.610Z,29.92
2023-01-08T06:36:23.190Z,29.40
2023-01-08T06:38:51.312Z,28.90
2023-01-08T06:41:19.457Z,29.73
2023-01-08T06:43:47.584Z,29.77
2023-01-08T06:46:15.745Z,30.63
2023-01-08T06:48:43.914Z,30.88
2023-01-08T06:51:12.099Z,29.33
2023-01-08T06:53:41.656Z,27.75
2023-01-08T06:56:11.170Z,29.88
2023-01-08T06:58:40.220Z,29.20
2023-01-08T07:01:08.532Z,31.42
2023-01-08T07:03:36.726Z,29.73
2023-01-08T07:06:05.261Z,28.27
2023-01-08T07:08:33.410Z,29.23
2023-01-08T07:11:05.335Z,28.88
2023-01-08T07:13:33.470Z,30.43
2023-01-08T07:16:07.429Z,28.75
2023-01-08T07:18:36.225Z,29.85
2023-01-08T07:21:04.651Z,31.25
2023-01-08T07:23:33.210Z,30.25
2023-01-08T07:26:02.452Z,31.05
2023-01-08T07:28:32.542Z,31.67
2023-01-08T07:31:05.018Z,29.73
2023-01-08T07:33:33.508Z,32.75
2023-01-08T07:36:01.626Z,29.95
2023-01-08T07:38:29.810Z,30.58
2023-01-08T07:40:59.240Z,30.02
2023-01-08T07:43:30.105Z,30.60
2023-01-08T07:45:59.727Z,30.10
2023-01-08T07:48:27.848Z,31.33
2023-01-08T07:50:55.987Z,32.10
2023-01-08T07:53:24.138Z,28.83
2023-01-08T07:55:52.328Z,31.15
2023-01-08T07:58:20.451Z,31.17
2023-01-08T08:00:48.601Z,32.90
2023-01-08T08:03:18.160Z,29.23
2023-01-08T08:05:46.298Z,31.38
2023-01-08T08:08:14.506Z,29.45
2023-01-08T08:10:43.825Z,30.05
2023-01-08T08:13:12.348Z,28.80
2023-01-08T08:15:41.518Z,30.92
2023-01-08T08:18:10.330Z,29.05
2023-01-08T08:20:40.055Z,28.98
2023-01-08T08:23:09.791Z,29.05
2023-01-08T08:25:38.403Z,30.20
2023-01-08T08:28:07.420Z,29.23
2023-01-08T08:30:36.858Z,28.73
2023-01-08T08:33:06.867Z,28.75
2023-01-08T08:35:35.944Z,28.58
2023-01-08T08:38:06.263Z,28.05
2023-01-08T08:40:34.407Z,26.25
2023-01-08T08:43:05.435Z,27.73
2023-01-08T08:45:33.580Z,25.83
2023-01-08T08:48:01.799Z,26.33
2023-01-08T08:50:32.505Z,25.65
2023-01-08T08:53:01.191Z,25.80
2023-01-08T08:55:30.978Z,26.15
2023-01-08T08:58:05.484Z,27.52
2023-01-08T09:00:34.178Z,26.50
2023-01-08T09:03:02.417Z,26.42
2023-01-08T09:05:30.643Z,26.67
2023-01-08T09:07:59.045Z,24.77
2023-01-08T09:10:27.228Z,26.25
2023-01-08T09:12:56.770Z,25.73
2023-01-08T09:15:25.059Z,24.58
2023-01-08T09:17:56.801Z,24.02
2023-01-08T09:20:26.016Z,26.55
2023-01-08T09:22:54.736Z,23.10
2023-01-08T09:25:22.982Z,25.58
2023-01-08T09:27:51.118Z,25.02
2023-01-08T09:30:20.711Z,24.88
2023-01-08T09:32:48.955Z,24.05
2023-01-08T09:35:17.413Z,23.92
2023-01-08T09:37:45.539Z,23.58
2023-01-08T09:40:17.783Z,25.52
2023-01-08T09:42:55.705Z,23.23
2023-01-08T09:45:29.328Z,25.17
2023-01-08T09:48:00.336Z,24.38
2023-01-08T09:50:30.645Z,23.00
2023-01-08T09:52:59.408Z,21.98
2023-01-08T09:55:32.537Z,23.80
2023-01-08T09:58:03.280Z,23.02
2023-01-08T10:00:35.809Z,22.05
2023-01-08T10:03:04.050Z,22.70
2023-01-08T10:05:32.329Z,22.27
2023-01-08T10:08:00.535Z,23.38
2023-01-08T10:10:32.125Z,22.58
2023-01-08T10:13:00.969Z,22.63
2023-01-08T10:15:29.176Z,19.52
2023-01-08T10:18:04.080Z,21.77
2023-01-08T10:20:33.449Z,20.50
2023-01-08T10:23:11.088Z,21.85
2023-01-08T10:25:51.417Z,21.25
2023-01-08T10:28:23.066Z,21.70
2023-01-08T10:30:53.142Z,21.10
2023-01-08T10:33:26.048Z,21.13
2023-01-08T10:35:57.168Z,21.23
2023-01-08T10:38:29.469Z,21.90
2023-01-08T10:40:58.775Z,19.20
2023-01-08T10:43:30.192Z,21.27
2023-01-08T10:46:01.272Z,20.42
2023-01-08T10:48:38.338Z,19.92
2023-01-08T10:51:08.411Z,20.88
2023-01-08T10:53:36.526Z,21.23
2023-01-08T10:56:06.050Z,22.23
2023-01-08T10:58:42.971Z,20.73
2023-01-08T11:01:14.159Z,20.95
2023-01-08T11:03:44.292Z,21.42
2023-01-08T11:06:14.571Z,21.58
2023-01-08T11:08:51.848Z,21.05
2023-01-08T11:11:21.156Z,22.10
2023-01-08T11:13:58.943Z,21.25
2023-01-08T11:16:35.501Z,21.20
2023-01-08T11:19:17.909Z,21.00
2023-01-08T11:21:56.805Z,20.80
2023-01-08T11:24:30.380Z,21.33
2023-01-08T11:27:07.524Z,21.40
2023-01-08T11:29:45.851Z,22.05
2023-01-08T11:32:29.178Z,22.58
2023-01-08T11:35:04.568Z,21.20
2023-01-08T11:37:35.371Z,23.73
2023-01-08T11:40:03.991Z,21.10
2023-01-08T11:42:48.916Z,21.85
2023-01-08T11:45:24.400Z,22.08
2023-01-08T11:48:18.068Z,21.08
2023-01-08T11:51:00.715Z,21.35
2023-01-08T11:53:37.137Z,21.02
2023-01-08T11:56:20.151Z,21.63
2023-01-08T12:01:41.295Z,19.83
2023-01-08T12:04:38.156Z,20.48
2023-01-08T12:07:16.459Z,19.88
2023-01-08T12:09:46.427Z,21.90
2023-01-08T12:12:31.216Z,22.40
2023-01-08T12:15:09.565Z,21.52
2023-01-08T12:18:01.751Z,21.50
2023-01-08T12:20:36.738Z,20.80
2023-01-08T12:23:19.427Z,22.17
2023-01-08T12:26:04.460Z,20.48
2023-01-08T12:28:48.560Z,20.10
2023-01-08T12:31:48.683Z,20.75
2023-01-08T12:34:38.027Z,22.05
2023-01-08T12:37:14.755Z,20.42
2023-01-08T12:39:52.303Z,21.95
2023-01-08T12:42:25.647Z,21.73
2023-01-08T12:44:56.306Z,21.23
2023-01-08T12:47:28.594Z,20.90
2023-01-08T12:50:10.744Z,22.48
2023-01-08T12:52:47.981Z,20.73
2023-01-08T12:55:32.975Z,21.83
2023-01-08T12:58:12.617Z,21.90
2023-01-08T13:00:46.924Z,19.27
2023-01-08T13:03:19.790Z,20.20
2023-01-08T13:05:47.990Z,20.02
2023-01-08T13:08:38.419Z,19.20
2023-01-08T13:11:08.930Z,20.23
2023-01-08T13:13:41.893Z,20.98
2023-01-08T13:16:20.205Z,20.70
2023-01-08T13:18:59.817Z,19.58
2023-01-08T13:21:34.066Z,19.20
2023-01-08T13:24:04.840Z,18.80
2023-01-08T13:26:36.424Z,19.33
2023-01-08T13:29:10.503Z,20.73
2023-01-08T13:31:42.275Z,20.08
2023-01-08T13:34:35.640Z,20.80
2023-01-08T13:37:03.807Z,19.85
2023-01-08T13:39:36.884Z,19.45
2023-01-08T13:42:22.986Z,19.65
2023-01-08T13:44:53.612Z,19.08
2023-01-08T13:47:32.045Z,18.50
2023-01-08T13:50:04.211Z,20.25
2023-01-08T13:52:43.402Z,18.75
2023-01-08T13:55:18.140Z,18.30
2023-01-08T13:57:53.102Z,18.52
2023-01-08T14:00:27.574Z,17.30
2023-01-08T14:02:55.823Z,19.73
2023-01-08T14:05:27.877Z,19.20
2023-01-08T14:07:56.338Z,19.38
2023-01-08T14:10:25.485Z,19.65
2023-01-08T14:12:56.045Z,21.00
2023-01-08T14:15:27.325Z,20.05
2023-01-08T14:17:56.737Z,21.08
2023-01-08T14:20:35.898Z,21.23
2023-01-08T14:23:10.158Z,19.30
2023-01-08T14:25:38.629Z,19.88
2023-01-08T14:28:08.622Z,19.55
2023-01-08T14:30:38.299Z,19.38
2023-01-08T14:33:14.069Z,20.77
2023-01-08T14:35:42.750Z,20.67
2023-01-08T14:38:14.541Z,20.83
2023-01-08T14:40:46.628Z,19.97
2023-01-08T14:43:19.354Z,25.50
2023-01-08T14:48:21.791Z,25.08
2023-01-08T14:51:01.850Z,26.98
2023-01-08T14:53:33.769Z,24.63
2023-01-08T14:56:03.198Z,24.05
2023-01-08T14:58:38.717Z,24.30
2023-01-08T15:01:09.998Z,24.30
2023-01-08T15:03:39.757Z,24.25
2023-01-08T15:06:11.433Z,26.73
2023-01-08T15:08:41.548Z,24.30
2023-01-08T15:11:22.180Z,24.73
2023-01-08T15:13:53.382Z,26.90
2023-01-08T15:16:29.437Z,26.05
2023-01-08T15:19:04.105Z,26.35
2023-01-08T15:21:32.601Z,26.08
2023-01-08T15:24:01.911Z,25.98
2023-01-08T15:26:30.460Z,28.10
2023-01-08T15:29:01.332Z,27.48
2023-01-08T15:31:31.325Z,26.98
2023-01-08T15:34:01.150Z,27.23
2023-01-08T15:36:29.603Z,27.35
2023-01-08T15:38:57.793Z,28.00
2023-01-08T15:41:43.506Z,26.73
2023-01-08T15:44:13.732Z,27.13
2023-01-08T15:46:41.887Z,27.13
2023-01-08T15:49:10.808Z,28.58
2023-01-08T15:51:42.949Z,28.35
2023-01-08T15:54:13.152Z,29.85
2023-01-08T15:56:41.856Z,27.33
2023-01-08T15:59:10.125Z,30.08
2023-01-08T16:01:40.271Z,28.65
2023-01-08T16:04:08.933Z,30.90
2023-01-08T16:06:37.619Z,27.55
2023-01-08T16:09:06.146Z,30.52
2023-01-08T16:11:34.589Z,38.22
2023-01-08T16:14:02.978Z,33.90
2023-01-08T16:16:31.451Z,32.00
2023-01-08T16:19:01.785Z,29.65
2023-01-08T16:21:30.393Z,32.60
2023-01-08T16:23:58.666Z,30.23
2023-01-08T16:26:27.222Z,31.98
2023-01-08T16:28:55.492Z,29.33
2023-01-08T16:31:23.670Z,30.85
2023-01-08T16:33:52.471Z,29.00
2023-01-08T16:36:22.551Z,27.85
2023-01-08T16:38:50.989Z,29.88
2023-01-08T16:41:19.800Z,30.13
2023-01-08T16:43:48.403Z,29.67
2023-01-08T16:46:18.565Z,28.75
2023-01-08T16:48:49.117Z,29.00
2023-01-08T16:51:18.166Z,29.25
2023-01-08T16:53:48.144Z,28.25
2023-01-08T16:56:16.990Z,30.80
2023-01-08T16:58:45.988Z,31.10
2023-01-08T17:01:16.290Z,30.60
2023-01-08T17:03:44.963Z,30.50
2023-01-08T17:06:15.438Z,30.40
2023-01-08T17:08:44.401Z,30.33
2023-01-08T17:11:15.613Z,29.52
2023-01-08T17:13:44.561Z,30.10
2023-01-08T17:16:14.916Z,31.27
2023-01-08T17:18:44.011Z,29.98
2023-01-08T17:21:14.040Z,31.00
2023-01-08T17:23:42.812Z,29.80
2023-01-08T17:26:15.676Z,30.38
2023-01-08T17:28:44.307Z,32.05
2023-01-08T17:31:15.403Z,30.23
2023-01-08T17:33:45.469Z,30.27
2023-01-08T17:36:16.567Z,30.10
2023-01-08T17:38:46.598Z,29.50
2023-01-08T17:41:37.817Z,28.23
2023-01-08T17:44:08.009Z,28.30
2023-01-08T17:46:38.112Z,30.73
2023-01-08T17:49:07.069Z,29.40
2023-01-08T17:51:36.315Z,29.75
2023-01-08T17:54:05.472Z,28.63
2023-01-08T17:56:35.910Z,28.40
2023-01-08T17:59:05.303Z,27.83
2023-01-08T18:01:35.510Z,30.02
2023-01-08T18:04:04.542Z,29.13
2023-01-08T18:06:33.892Z,28.42
2023-01-08T18:09:02.777Z,27.98
2023-01-08T18:11:31.980Z,28.88
2023-01-08T18:14:04.570Z,27.55
2023-01-08T18:16:34.470Z,25.02
2023-01-08T18:19:03.148Z,25.17
2023-01-08T18:21:31.347Z,24.65
2023-01-08T18:24:00.260Z,25.50
2023-01-08T18:26:29.769Z,25.27
2023-01-08T18:28:58.802Z,26.38
2023-01-08T18:31:29.808Z,24.33
2023-01-08T18:33:58.620Z,26.65
2023-01-08T18:36:27.055Z,26.48
2023-01-08T18:38:57.694Z,24.00
2023-01-08T18:41:45.617Z,24.13
2023-01-08T18:44:14.845Z,24.23
2023-01-08T18:46:46.720Z,24.08
2023-01-08T18:49:17.071Z,21.23
2023-01-08T18:51:46.088Z,20.35
2023-01-08T18:54:14.929Z,20.63
2023-01-08T18:56:43.832Z,18.65
2023-01-08T18:59:13.160Z,19.65
2023-01-08T19:01:42.154Z,17.88
2023-01-08T19:04:17.203Z,17.20
2023-01-08T19:06:45.980Z,14.93
2023-01-08T19:09:15.784Z,13.48
2023-01-08T19:11:48.568Z,12.27
2023-01-08T19:16:51.385Z,11.65
2023-01-08T19:19:22.404Z,11.50
2023-01-08T19:21:51.765Z,11.63
2023-01-08T19:24:21.189Z,11.60
2023-01-08T19:26:49.813Z,12.13
2023-01-08T19:29:19.041Z,12.35
2023-01-08T19:31:48.652Z,11.93
2023-01-08T19:34:18.304Z,12.85
2023-01-08T19:36:48.783Z,12.15
2023-01-08T19:39:18.665Z,12.02
2023-01-08T19:42:04.953Z,12.00
2023-01-08T19:44:34.990Z,11.38
2023-01-08T19:47:03.815Z,11.32
2023-01-08T19:49:32.754Z,14.25
2023-01-08T19:52:03.102Z,13.05
2023-01-08T19:54:32.118Z,13.52
2023-01-08T19:57:01.353Z,13.48
2023-01-08T19:59:30.615Z,12.40
2023-01-08T20:01:59.613Z,13.10
2023-01-08T20:04:28.995Z,11.95
2023-01-08T20:07:00.387Z,13.32
2023-01-08T20:09:32.069Z,12.23
2023-01-08T20:12:01.876Z,12.27
2023-01-08T20:14:30.883Z,14.25
2023-01-08T20:17:00.148Z,13.32
2023-01-08T20:19:32.637Z,13.38
2023-01-08T20:22:01.529Z,12.63
2023-01-08T20:24:32.169Z,12.18
2023-01-08T20:27:01.089Z,12.82
2023-01-08T20:29:30.087Z,14.18
2023-01-08T20:32:00.625Z,13.38
2023-01-08T20:34:30.817Z,13.00
2023-01-08T20:36:59.645Z,14.20
2023-01-08T20:39:28.605Z,13.55
2023-01-08T20:42:04.242Z,14.75
2023-01-08T20:44:34.028Z,14.73
2023-01-08T20:47:03.914Z,14.18
2023-01-08T20:49:33.045Z,14.13
2023-01-08T20:52:02.129Z,14.10
2023-01-08T20:54:32.051Z,13.77
2023-01-08T20:57:02.621Z,16.10
2023-01-08T20:59:32.351Z,14.68
2023-01-08T21:02:01.565Z,13.18
2023-01-08T21:04:30.756Z,12.90
2023-01-08T21:07:02.151Z,14.85
2023-01-08T21:09:30.677Z,13.73
2023-01-08T21:11:58.985Z,14.07
2023-01-08T21:14:29.224Z,15.40
2023-01-08T21:17:00.628Z,14.43
2023-01-08T21:19:28.953Z,13.65
2023-01-08T21:21:57.237Z,15.55
2023-01-08T21:24:25.402Z,15.00
2023-01-08T21:26:53.957Z,13.35
2023-01-08T21:29:23.558Z,14.18
2023-01-08T21:31:53.184Z,15.15
2023-01-08T21:34:21.677Z,15.60
2023-01-08T21:36:50.127Z,15.35
2023-01-08T21:39:18.353Z,13.15
2023-01-08T21:42:04.327Z,14.43
2023-01-08T21:44:49.776Z,14.05
2023-01-08T21:47:20.695Z,14.73
2023-01-08T21:49:49.628Z,15.52
2023-01-08T21:52:35.217Z,14.05
2023-01-08T21:55:03.605Z,15.45
2023-01-08T21:57:31.721Z,14.32
2023-01-08T21:59:59.861Z,17.10
2023-01-08T22:02:29.519Z,15.23
2023-01-08T22:04:58.475Z,13.65
2023-01-08T22:07:27.112Z,14.88
2023-01-08T22:09:55.872Z,16.23
2023-01-08T22:12:25.709Z,16.70
2023-01-08T22:14:54.457Z,15.98
2023-01-08T22:17:23.417Z,14.63
2023-01-08T22:19:53.084Z,15.27
2023-01-08T22:22:24.161Z,15.20
2023-01-08T22:24:52.752Z,16.58
2023-01-08T22:27:21.156Z,17.40
2023-01-08T22:29:49.872Z,16.70
2023-01-08T22:32:18.141Z,17.25
2023-01-08T22:34:46.260Z,16.42
2023-01-08T22:37:17.230Z,15.77
2023-01-08T22:39:46.499Z,15.73
2023-01-08T22:42:14.645Z,15.85
2023-01-08T22:44:42.838Z,17.67
2023-01-08T22:47:11.229Z,15.80
2023-01-08T22:49:39.482Z,16.33
2023-01-08T22:52:08.571Z,18.13
2023-01-08T22:54:38.778Z,16.65
2023-01-08T22:57:07.216Z,17.05
2023-01-08T22:59:35.469Z,18.92
2023-01-08T23:02:03.662Z,16.20
2023-01-08T23:04:31.810Z,15.43
2023-01-08T23:06:59.976Z,15.23
2023-01-08T23:09:28.146Z,15.32
2023-01-08T23:11:57.714Z,14.57
2023-01-08T23:14:25.860Z,15.50
2023-01-08T23:16:53.988Z,15.40
2023-01-08T23:19:22.171Z,17.10
2023-01-08T23:21:50.299Z,14.60
2023-01-08T23:24:18.521Z,14.55
2023-01-08T23:26:46.669Z,15.48
2023-01-08T23:29:16.219Z,16.23
2023-01-08T23:31:44.522Z,15.60
2023-01-08T23:34:12.862Z,14.88
2023-01-08T23:36:41.060Z,15.43
2023-01-08T23:39:09.413Z,15.82
2023-01-08T23:41:37.593Z,14.35
2023-01-08T23:44:07.527Z,14.15
2023-01-08T23:46:37.730Z,15.65
2023-01-08T23:49:07.233Z,16.30
2023-01-08T23:51:35.444Z,16.50
2023-01-08T23:54:03.860Z,18.75
2023-01-08T23:56:32.015Z,16.20
2023-01-08T23:59:00.209Z,16.55
